createdAt,value
2019-03-21T01:01:06.269Z,7.93
2019-03-21T01:06:07.597Z,5.73
2019-03-21T01:11:09.622Z,7.03
2019-03-21T01:16:10.926Z,4.87
2019-03-21T01:21:12.969Z,5.83
2019-03-21T01:26:14.276Z,6.90
2019-03-21T02:34:36.749Z,9.83
2019-03-21T02:39:38.055Z,6.27
2019-03-21T02:44:40.163Z,9.07
2019-03-21T02:49:41.390Z,10.07
2019-03-21T02:54:42.690Z,9.33
2019-03-21T02:59:44.722Z,6.57
2019-03-21T04:01:48.315Z,8.13
2019-03-21T04:06:49.622Z,6.53
2019-03-21T04:11:50.932Z,6.50
2019-03-21T04:16:52.222Z,7.47
2019-03-21T04:21:53.537Z,7.57
2019-03-21T04:26:54.817Z,6.03
2019-03-21T05:35:17.317Z,5.67
2019-03-21T05:40:18.644Z,5.13
2019-03-21T05:45:20.090Z,6.77
2019-03-21T05:50:21.421Z,7.97
2019-03-21T05:55:23.490Z,9.53
2019-03-21T06:00:32.086Z,7.13
2019-03-21T07:02:35.238Z,9.30
2019-03-21T07:07:36.536Z,14.57
2019-03-21T07:12:37.830Z,9.17
2019-03-21T07:17:39.212Z,8.23
2019-03-21T07:22:41.245Z,10.47
2019-03-21T07:27:42.605Z,7.30
2019-03-21T08:30:34.678Z,5.17
2019-03-21T08:35:35.970Z,4.70
2019-03-21T08:40:37.352Z,4.10
2019-03-21T08:45:39.383Z,3.70
2019-03-21T08:50:40.669Z,8.23
2019-03-21T08:55:42.032Z,3.50
2019-03-21T10:04:06.553Z,5.93
2019-03-21T10:09:07.854Z,4.20
2019-03-21T10:14:09.858Z,4.23
2019-03-21T10:19:11.134Z,2.50
2019-03-21T10:24:12.396Z,7.63
2019-03-21T10:29:13.680Z,5.03
2019-03-21T11:31:16.517Z,5.13
2019-03-21T11:36:18.061Z,5.90
2019-03-21T11:41:19.352Z,5.70
2019-03-21T11:46:20.671Z,4.57
2019-03-21T11:51:22.007Z,6.27
2019-03-21T11:56:23.327Z,5.17
2019-03-21T13:04:47.158Z,4.47
2019-03-21T13:09:48.473Z,7.53
2019-03-21T13:14:49.771Z,5.57
2019-03-21T13:19:51.047Z,4.20
2019-03-21T13:24:52.310Z,5.87
2019-03-21T13:29:53.637Z,4.27
2019-03-21T14:31:56.243Z,5.70
2019-03-21T14:36:58.252Z,9.27
2019-03-21T14:41:59.561Z,4.03
2019-03-21T14:47:00.856Z,5.13
2019-03-21T14:52:02.177Z,5.10
2019-03-21T14:57:03.469Z,4.57
2019-03-21T16:05:28.519Z,6.67
2019-03-21T16:10:29.801Z,4.20
2019-03-21T16:15:31.086Z,4.57
2019-03-21T16:20:32.397Z,7.07
2019-03-21T16:25:34.419Z,5.10
2019-03-21T16:30:35.694Z,6.13
2019-03-21T16:35:36.997Z,4.10
2019-03-21T16:40:38.273Z,5.23
2019-03-21T16:45:39.593Z,4.27
2019-03-21T16:50:40.880Z,8.43
2019-03-21T16:55:42.896Z,6.00
2019-03-21T17:00:44.191Z,4.00
2019-03-21T17:05:45.507Z,6.53
2019-03-21T17:10:46.789Z,4.93
2019-03-21T17:15:48.139Z,3.60
2019-03-21T17:20:56.709Z,6.10
2019-03-21T17:25:59.551Z,7.70
2019-03-21T17:31:02.072Z,5.83
2019-03-21T17:36:27.313Z,6.80
2019-03-21T17:41:28.771Z,4.70
2019-03-21T17:46:38.017Z,5.07
2019-03-21T17:51:46.857Z,4.60
2019-03-21T17:56:48.101Z,5.27
2019-03-21T18:01:49.857Z,5.53
2019-03-21T18:06:51.976Z,4.60
2019-03-21T18:11:53.326Z,6.23
2019-03-21T18:16:54.708Z,5.30
2019-03-21T18:21:56.347Z,7.63
2019-03-21T18:26:57.711Z,6.00
2019-03-21T18:31:59.039Z,6.17
2019-03-21T18:37:00.419Z,6.90
2019-03-21T18:42:01.818Z,9.27
2019-03-21T18:47:03.176Z,6.23
2019-03-21T18:52:04.553Z,8.10
2019-03-21T18:57:05.889Z,9.07
2019-03-21T19:02:07.951Z,8.00
2019-03-21T19:07:09.287Z,7.27
2019-03-21T19:12:10.651Z,7.57
2019-03-21T19:17:11.964Z,8.13
2019-03-21T19:22:13.339Z,10.80
2019-03-21T19:27:14.699Z,12.97
2019-03-21T19:32:16.032Z,14.07
2019-03-21T19:37:17.390Z,17.67
2019-03-21T19:42:18.694Z,11.60
2019-03-21T19:47:24.970Z,8.03
2019-03-21T19:52:22.105Z,9.23
2019-03-21T19:57:24.481Z,9.80
2019-03-21T20:02:27.246Z,9.83
2019-03-21T20:07:31.781Z,7.70
2019-03-21T20:12:33.740Z,9.43
2019-03-21T20:17:40.653Z,8.50
2019-03-21T20:22:42.030Z,10.90
2019-03-21T20:27:44.384Z,12.77
2019-03-21T20:32:52.696Z,13.33
2019-03-21T20:37:55.582Z,10.20
2019-03-21T20:42:56.893Z,9.93
2019-03-21T20:47:59.674Z,9.53
2019-03-21T20:53:02.022Z,9.47
2019-03-21T20:58:06.751Z,12.20
2019-03-21T21:03:08.895Z,11.30
2019-03-21T21:08:10.918Z,11.60
2019-03-21T21:13:13.210Z,11.27
2019-03-21T21:18:18.955Z,11.80
2019-03-21T21:23:20.301Z,11.87
2019-03-21T21:28:22.597Z,12.87
2019-03-21T21:33:25.476Z,11.00
2019-03-21T21:38:34.447Z,12.03
2019-03-21T21:43:35.893Z,9.53
2019-03-21T21:48:38.320Z,16.50
2019-03-21T21:53:39.666Z,11.23
2019-03-21T21:58:40.973Z,10.13
2019-03-21T22:03:46.668Z,12.37
2019-03-21T22:08:48.134Z,15.00
2019-03-21T22:13:49.431Z,10.97
2019-03-21T22:18:50.850Z,16.07
2019-03-21T22:23:52.158Z,11.37
2019-03-21T22:28:53.477Z,10.97
2019-03-21T22:33:54.790Z,14.43
2019-03-21T22:38:56.120Z,10.53
2019-03-21T22:43:57.457Z,11.23
2019-03-21T22:48:59.526Z,10.70
2019-03-21T22:54:01.634Z,10.03
2019-03-21T22:59:02.949Z,11.10
2019-03-21T23:35:44.719Z,12.20
2019-03-21T23:40:46.026Z,11.23
2019-03-21T23:45:48.069Z,9.27
2019-03-21T23:50:49.373Z,11.80
2019-03-21T23:55:50.661Z,11.50
